createdAt,value
2022-11-24T00:01:52.274Z,41.80
2022-11-24T00:04:22.514Z,33.50
2022-11-24T00:06:53.137Z,27.60
2022-11-24T00:09:21.923Z,34.80
2022-11-24T00:11:50.386Z,31.50
2022-11-24T00:14:19.694Z,39.50
2022-11-24T00:16:48.476Z,19.60
2022-11-24T00:19:19.964Z,35.50
2022-11-24T00:21:49.758Z,34.90
2022-11-24T00:24:18.564Z,43.90
2022-11-24T00:26:52.922Z,29.70
2022-11-24T00:29:21.670Z,30.10
2022-11-24T00:31:55.167Z,36.60
2022-11-24T00:34:24.228Z,10.80
2022-11-24T00:36:52.870Z,26.50
2022-11-24T00:39:22.760Z,35.90
2022-11-24T00:41:57.226Z,17.40
2022-11-24T00:44:26.007Z,32.40
2022-11-24T00:46:55.075Z,28.50
2022-11-24T00:49:24.039Z,33.40
2022-11-24T00:51:55.514Z,8.40
2022-11-24T00:54:24.451Z,28.60
2022-11-24T00:56:58.392Z,23.60
2022-11-24T00:59:27.968Z,11.60
2022-11-24T01:01:56.543Z,24.60
2022-11-24T01:04:25.438Z,38.80
2022-11-24T01:06:54.097Z,35.90
2022-11-24T01:09:26.595Z,39.40
2022-11-24T01:12:01.819Z,33.00
2022-11-24T01:14:33.400Z,40.50
2022-11-24T01:17:05.606Z,32.80
2022-11-24T01:19:34.626Z,32.90
2022-11-24T01:22:02.998Z,34.50
2022-11-24T01:24:32.109Z,32.80
2022-11-24T01:27:01.194Z,31.10
2022-11-24T01:29:30.294Z,19.20
2022-11-24T01:31:58.981Z,17.70
2022-11-24T01:34:27.674Z,31.40
2022-11-24T01:36:59.676Z,36.80
2022-11-24T01:39:30.307Z,43.60
2022-11-24T01:42:02.316Z,45.40
2022-11-24T01:44:31.983Z,42.60
2022-11-24T01:47:02.881Z,39.20
2022-11-24T01:49:40.556Z,46.20
2022-11-24T01:52:16.521Z,43.00
2022-11-24T01:54:48.172Z,29.40
2022-11-24T01:57:23.718Z,36.90
2022-11-24T01:59:57.004Z,21.60
2022-11-24T02:02:31.777Z,27.00
2022-11-24T02:05:08.121Z,40.30
2022-11-24T02:07:37.990Z,12.10
2022-11-24T02:10:13.470Z,31.10
2022-11-24T02:12:47.777Z,49.40
2022-11-24T02:15:20.364Z,46.00
2022-11-24T02:17:50.423Z,49.30
2022-11-24T02:20:22.561Z,44.00
2022-11-24T02:22:57.092Z,36.20
2022-11-24T02:25:34.312Z,46.50
2022-11-24T02:28:20.003Z,39.80
2022-11-24T02:30:49.871Z,16.40
2022-11-24T02:33:21.050Z,43.70
2022-11-24T02:35:52.201Z,27.30
2022-11-24T02:38:30.669Z,30.60
2022-11-24T02:41:02.331Z,28.30
2022-11-24T02:43:35.603Z,44.40
2022-11-24T02:46:04.200Z,36.90
2022-11-24T02:48:33.219Z,47.40
2022-11-24T02:51:01.889Z,32.50
2022-11-24T02:53:30.701Z,38.50
2022-11-24T02:55:59.373Z,32.90
2022-11-24T02:58:27.813Z,33.20
2022-11-24T03:00:56.851Z,31.50
2022-11-24T03:03:25.872Z,25.20
2022-11-24T03:05:54.632Z,29.00
2022-11-24T03:08:23.787Z,21.20
2022-11-24T03:10:52.715Z,17.30
2022-11-24T03:13:21.158Z,23.80
2022-11-24T03:15:49.985Z,35.60
2022-11-24T03:18:18.763Z,27.20
2022-11-24T03:20:47.257Z,32.40
2022-11-24T03:23:16.150Z,31.20
2022-11-24T03:25:47.365Z,29.80
2022-11-24T03:28:15.698Z,23.30
2022-11-24T03:30:44.012Z,20.20
2022-11-24T03:33:12.819Z,18.20
2022-11-24T03:35:42.951Z,21.40
2022-11-24T03:38:11.676Z,23.90
2022-11-24T03:40:40.155Z,10.70
2022-11-24T03:43:08.504Z,13.60
2022-11-24T03:45:45.967Z,27.60
2022-11-24T03:48:20.704Z,31.50
2022-11-24T03:50:55.333Z,26.40
2022-11-24T03:53:25.340Z,25.70
2022-11-24T03:55:54.608Z,25.10
2022-11-24T03:58:23.115Z,16.70
2022-11-24T04:00:53.334Z,22.10
2022-11-24T04:03:22.469Z,16.30
2022-11-24T04:05:51.443Z,15.70
2022-11-24T04:08:23.154Z,15.80
2022-11-24T04:10:53.143Z,15.90
2022-11-24T04:13:23.850Z,23.40
2022-11-24T04:15:52.938Z,14.00
2022-11-24T04:18:22.277Z,24.70
2022-11-24T04:20:52.742Z,23.30
2022-11-24T04:23:22.922Z,27.00
2022-11-24T04:25:51.771Z,22.40
2022-11-24T04:28:20.327Z,18.70
2022-11-24T04:30:48.857Z,28.60
2022-11-24T04:33:17.493Z,8.50
2022-11-24T04:35:45.847Z,14.40
2022-11-24T04:39:22.784Z,16.70
2022-11-24T04:41:05.454Z,18.80
2022-11-24T04:43:40.458Z,13.80
2022-11-24T04:46:11.315Z,19.20
2022-11-24T04:48:54.352Z,21.00
2022-11-24T04:51:22.896Z,25.70
2022-11-24T04:53:53.025Z,20.60
2022-11-24T04:56:22.015Z,19.40
2022-11-24T04:58:53.466Z,21.70
2022-11-24T05:01:21.879Z,20.10
2022-11-24T05:03:52.811Z,23.00
2022-11-24T05:06:24.011Z,20.10
2022-11-24T05:08:52.897Z,12.80
2022-11-24T05:11:25.387Z,17.90
2022-11-24T05:13:54.046Z,20.60
2022-11-24T05:16:23.329Z,18.30
2022-11-24T05:18:51.751Z,11.80
2022-11-24T05:21:20.078Z,20.40
2022-11-24T05:23:48.714Z,16.40
2022-11-24T05:26:17.894Z,25.90
2022-11-24T05:28:46.847Z,17.90
2022-11-24T05:31:15.618Z,26.10
2022-11-24T05:33:45.164Z,15.20
2022-11-24T05:36:36.116Z,16.90
2022-11-24T05:39:05.226Z,19.40
2022-11-24T05:41:36.456Z,16.10
2022-11-24T05:44:08.194Z,6.70
2022-11-24T05:46:42.709Z,11.30
2022-11-24T05:49:12.838Z,16.90
2022-11-24T05:51:43.839Z,14.80
2022-11-24T05:54:12.291Z,10.30
2022-11-24T05:56:41.138Z,18.10
2022-11-24T05:59:11.977Z,25.60
2022-11-24T06:01:43.256Z,24.40
2022-11-24T06:04:17.742Z,26.40
2022-11-24T06:06:47.617Z,34.10
2022-11-24T06:09:17.762Z,34.20
2022-11-24T06:11:49.297Z,26.30
2022-11-24T06:14:17.685Z,25.70
2022-11-24T06:16:46.947Z,25.70
2022-11-24T06:19:17.770Z,14.20
2022-11-24T06:21:46.379Z,13.60
2022-11-24T06:24:17.712Z,16.80
2022-11-24T06:26:46.697Z,15.10
2022-11-24T06:29:26.701Z,9.70
2022-11-24T06:31:55.185Z,20.70
2022-11-24T06:34:23.941Z,20.90
2022-11-24T06:36:54.767Z,23.20
2022-11-24T06:39:23.462Z,18.60
2022-11-24T06:41:52.839Z,28.40
2022-11-24T06:44:24.805Z,22.50
2022-11-24T06:46:56.115Z,13.50
2022-11-24T06:49:24.548Z,21.20
2022-11-24T06:51:55.664Z,19.20
2022-11-24T06:54:24.577Z,21.00
2022-11-24T06:56:57.042Z,12.70
2022-11-24T06:59:26.361Z,8.70
2022-11-24T07:01:54.817Z,11.70
2022-11-24T07:04:24.627Z,18.20
2022-11-24T07:06:56.225Z,24.00
2022-11-24T07:09:24.815Z,25.10
2022-11-24T07:11:55.808Z,26.60
2022-11-24T07:14:31.585Z,21.00
2022-11-24T07:17:06.146Z,22.10
2022-11-24T07:19:34.771Z,19.50
2022-11-24T07:22:08.298Z,22.00
2022-11-24T07:24:37.228Z,20.60
2022-11-24T07:27:05.958Z,15.90
2022-11-24T07:29:34.504Z,13.10
2022-11-24T07:32:05.668Z,17.10
2022-11-24T07:34:34.825Z,21.20
2022-11-24T07:37:03.587Z,20.00
2022-11-24T07:39:33.165Z,21.10
2022-11-24T07:42:03.116Z,23.10
2022-11-24T07:44:31.979Z,31.80
2022-11-24T07:47:01.574Z,24.40
2022-11-24T07:49:30.191Z,28.40
2022-11-24T07:52:00.233Z,26.80
2022-11-24T07:54:31.039Z,14.30
2022-11-24T07:56:59.495Z,20.30
2022-11-24T07:59:28.110Z,22.60
2022-11-24T08:01:57.172Z,18.30
2022-11-24T08:04:26.028Z,16.60
2022-11-24T08:06:54.402Z,22.10
2022-11-24T08:09:23.245Z,27.30
2022-11-24T08:11:52.587Z,32.70
2022-11-24T08:14:21.029Z,19.10
2022-11-24T08:16:58.229Z,26.90
2022-11-24T08:19:28.172Z,13.50
2022-11-24T08:21:56.747Z,18.10
2022-11-24T08:24:26.443Z,12.50
2022-11-24T08:26:54.899Z,21.00
2022-11-24T08:29:29.029Z,15.80
2022-11-24T08:31:58.032Z,13.30
2022-11-24T08:34:27.410Z,26.00
2022-11-24T08:36:58.277Z,26.90
2022-11-24T08:39:26.842Z,25.60
2022-11-24T08:41:56.863Z,23.80
2022-11-24T08:44:28.011Z,20.20
2022-11-24T08:46:57.212Z,24.30
2022-11-24T08:49:26.420Z,16.90
2022-11-24T08:51:57.445Z,21.00
2022-11-24T08:54:27.470Z,16.10
2022-11-24T08:56:57.267Z,11.80
2022-11-24T08:59:26.315Z,15.80
2022-11-24T09:01:54.926Z,15.30
2022-11-24T09:04:23.585Z,21.30
2022-11-24T09:06:52.042Z,25.60
2022-11-24T09:09:22.083Z,22.80
2022-11-24T09:11:50.614Z,24.50
2022-11-24T09:14:19.445Z,21.50
2022-11-24T09:16:51.441Z,17.90
2022-11-24T09:19:21.634Z,19.70
2022-11-24T09:21:50.891Z,13.70
2022-11-24T09:24:21.484Z,18.80
2022-11-24T09:26:50.238Z,15.50
2022-11-24T09:29:19.313Z,17.00
2022-11-24T09:31:52.238Z,13.60
2022-11-24T09:34:21.717Z,22.00
2022-11-24T09:36:58.135Z,29.60
2022-11-24T09:39:26.997Z,21.40
2022-11-24T09:42:12.333Z,17.70
2022-11-24T09:44:59.657Z,16.50
2022-11-24T09:47:39.050Z,13.30
2022-11-24T09:50:15.153Z,15.50
2022-11-24T09:52:50.307Z,12.10
2022-11-24T09:55:34.439Z,24.10
2022-11-24T09:58:24.247Z,20.20
2022-11-24T10:00:55.520Z,27.70
2022-11-24T10:03:32.077Z,23.00
2022-11-24T10:06:06.571Z,27.90
2022-11-24T10:08:53.787Z,18.30
2022-11-24T10:11:35.513Z,21.40
2022-11-24T10:14:34.839Z,9.00
2022-11-24T10:17:12.522Z,15.10
2022-11-24T10:19:45.790Z,21.80
2022-11-24T10:22:30.352Z,16.80
2022-11-24T10:25:24.318Z,17.20
2022-11-24T10:27:57.198Z,21.40
2022-11-24T10:30:27.955Z,25.40
2022-11-24T10:33:00.409Z,26.30
2022-11-24T10:35:37.354Z,23.30
2022-11-24T10:38:16.233Z,25.40
2022-11-24T10:40:57.018Z,24.00
2022-11-24T10:43:27.772Z,15.10
2022-11-24T10:46:00.472Z,15.70
2022-11-24T10:48:37.083Z,11.50
2022-11-24T10:51:43.868Z,15.20
2022-11-24T10:54:17.078Z,15.30
2022-11-24T10:56:50.174Z,29.10
2022-11-24T10:59:36.950Z,25.20
2022-11-24T11:02:29.567Z,25.50
2022-11-24T11:05:19.875Z,23.50
2022-11-24T11:07:48.349Z,30.30
2022-11-24T11:10:21.587Z,19.00
2022-11-24T11:12:50.165Z,21.70
2022-11-24T11:15:30.053Z,22.90
2022-11-24T11:18:00.435Z,21.50
2022-11-24T11:20:31.387Z,17.70
2022-11-24T11:23:13.444Z,14.70
2022-11-24T11:25:43.213Z,23.70
2022-11-24T11:28:23.125Z,26.80
2022-11-24T11:31:16.809Z,30.90
2022-11-24T11:34:06.193Z,22.20
2022-11-24T11:36:41.342Z,32.10
2022-11-24T11:39:22.727Z,20.80
2022-11-24T11:41:55.559Z,19.40
2022-11-24T11:44:34.926Z,23.10
2022-11-24T11:47:14.024Z,23.10
2022-11-24T11:49:44.669Z,23.40
2022-11-24T11:52:40.445Z,18.10
2022-11-24T11:55:25.284Z,21.80
2022-11-24T11:58:03.393Z,26.00
2022-11-24T12:00:36.361Z,27.30
2022-11-24T12:03:41.590Z,27.30
2022-11-24T12:06:23.487Z,33.20
2022-11-24T12:12:12.776Z,25.90
2022-11-24T12:14:48.811Z,25.80
2022-11-24T12:17:28.600Z,26.10
2022-11-24T12:20:13.955Z,29.10
2022-11-24T12:22:48.222Z,30.70
2022-11-24T12:25:26.215Z,25.80
2022-11-24T12:28:08.736Z,19.30
2022-11-24T12:30:46.936Z,29.00
2022-11-24T12:33:57.909Z,36.10
2022-11-24T12:36:50.052Z,29.60
2022-11-24T12:39:31.501Z,31.10
2022-11-24T12:42:09.710Z,33.40
2022-11-24T12:45:18.224Z,29.20
2022-11-24T12:48:12.667Z,31.30
2022-11-24T12:50:45.561Z,32.30
2022-11-24T12:53:17.065Z,27.50
2022-11-24T12:55:46.921Z,24.80
2022-11-24T12:58:25.290Z,28.30
2022-11-24T13:01:16.243Z,25.80
2022-11-24T13:03:56.959Z,25.00
2022-11-24T13:06:36.453Z,36.80
2022-11-24T13:09:12.673Z,35.60
2022-11-24T13:11:45.708Z,35.20
2022-11-24T13:14:18.201Z,35.20
2022-11-24T13:17:21.896Z,31.00
2022-11-24T13:19:43.215Z,35.30
2022-11-24T13:22:16.708Z,27.40
2022-11-24T13:24:45.503Z,33.40
2022-11-24T13:27:27.879Z,25.30
2022-11-24T13:29:58.011Z,24.30
2022-11-24T13:32:46.929Z,25.70
2022-11-24T13:35:16.383Z,31.50
2022-11-24T13:37:52.187Z,33.90
2022-11-24T13:40:45.903Z,31.70
2022-11-24T13:43:26.107Z,32.30
2022-11-24T13:45:55.222Z,32.50
2022-11-24T13:48:59.284Z,42.00
2022-11-24T13:51:28.119Z,37.30
2022-11-24T13:54:00.464Z,45.40
2022-11-24T13:56:31.056Z,37.10
2022-11-24T13:59:02.876Z,36.60
2022-11-24T14:01:32.663Z,34.80
2022-11-24T14:04:35.246Z,32.50
2022-11-24T14:07:09.200Z,19.50
2022-11-24T14:09:43.599Z,26.60
2022-11-24T14:12:21.064Z,37.90
2022-11-24T14:14:55.268Z,34.70
2022-11-24T14:17:27.900Z,34.30
2022-11-24T14:19:58.079Z,36.90
2022-11-24T14:22:40.520Z,39.20
2022-11-24T14:25:26.423Z,40.10
2022-11-24T14:27:55.291Z,41.10
2022-11-24T14:30:24.942Z,35.90
2022-11-24T14:32:58.095Z,35.00
2022-11-24T14:35:29.418Z,26.40
2022-11-24T14:38:00.009Z,29.90
2022-11-24T14:40:40.648Z,22.80
2022-11-24T14:43:20.241Z,16.50
2022-11-24T14:45:54.932Z,23.40
2022-11-24T14:48:28.349Z,20.00
2022-11-24T14:51:11.568Z,34.10
2022-11-24T14:53:43.559Z,35.90
2022-11-24T14:56:26.130Z,40.40
2022-11-24T14:58:56.752Z,42.00
2022-11-24T15:01:32.315Z,44.60
2022-11-24T15:04:46.435Z,31.90
2022-11-24T15:07:21.245Z,36.70
2022-11-24T15:09:52.530Z,31.00
2022-11-24T15:12:28.173Z,29.10
2022-11-24T15:15:00.656Z,27.10
2022-11-24T15:17:30.156Z,29.30
2022-11-24T15:20:02.648Z,31.90
2022-11-24T15:22:41.477Z,35.00
2022-11-24T15:25:36.772Z,30.00
2022-11-24T15:28:11.428Z,37.20
2022-11-24T15:30:40.169Z,42.70
2022-11-24T15:33:15.161Z,50.30
2022-11-24T15:35:44.633Z,43.00
2022-11-24T15:38:16.766Z,37.60
2022-11-24T15:40:48.130Z,37.60
2022-11-24T15:43:28.509Z,35.70
2022-11-24T15:45:59.062Z,41.50
2022-11-24T15:48:28.275Z,36.60
2022-11-24T15:50:57.954Z,36.80
2022-11-24T15:53:31.126Z,41.40
2022-11-24T15:56:01.771Z,37.70
2022-11-24T15:58:30.294Z,29.70
2022-11-24T16:00:58.908Z,35.00
2022-11-24T16:03:57.371Z,42.90
2022-11-24T16:06:24.127Z,40.60
2022-11-24T16:11:37.199Z,42.30
2022-11-24T16:14:05.770Z,44.80
2022-11-24T16:16:41.011Z,37.70
2022-11-24T16:19:10.163Z,32.70
2022-11-24T16:21:38.707Z,36.70
2022-11-24T16:24:08.010Z,37.20
2022-11-24T16:26:36.419Z,24.20
2022-11-24T16:29:04.869Z,31.00
2022-11-24T16:31:37.924Z,32.30
2022-11-24T16:34:07.152Z,24.40
2022-11-24T16:36:38.641Z,21.70
2022-11-24T16:39:07.258Z,31.40
2022-11-24T16:41:37.820Z,29.10
2022-11-24T16:44:09.929Z,39.30
2022-11-24T16:46:40.996Z,42.90
2022-11-24T16:49:09.710Z,44.00
2022-11-24T16:51:38.320Z,46.30
2022-11-24T16:54:06.902Z,40.70
2022-11-24T16:56:36.220Z,36.60
2022-11-24T16:59:04.567Z,44.90
2022-11-24T17:01:36.116Z,40.10
2022-11-24T17:04:09.584Z,40.60
2022-11-24T17:06:43.756Z,25.50
2022-11-24T17:09:16.631Z,40.50
2022-11-24T17:11:53.415Z,48.50
2022-11-24T17:14:26.084Z,44.10
2022-11-24T17:16:58.561Z,57.50
2022-11-24T17:19:34.100Z,58.20
2022-11-24T17:22:07.623Z,46.30
2022-11-24T17:24:52.994Z,46.50
2022-11-24T17:27:24.369Z,49.50
2022-11-24T17:29:53.179Z,49.60
2022-11-24T17:32:24.496Z,49.00
2022-11-24T17:34:53.564Z,47.30
2022-11-24T17:37:22.901Z,48.40
2022-11-24T17:40:12.926Z,40.00
2022-11-24T17:42:40.416Z,38.80
2022-11-24T17:45:10.660Z,42.50
2022-11-24T17:47:39.271Z,48.40
2022-11-24T17:50:10.274Z,50.70
2022-11-24T17:52:39.059Z,51.80
2022-11-24T17:55:09.782Z,56.00
2022-11-24T17:57:38.686Z,59.60
2022-11-24T18:00:09.271Z,53.30
2022-11-24T18:02:41.083Z,55.00
2022-11-24T18:05:10.265Z,55.60
2022-11-24T18:07:38.771Z,59.70
2022-11-24T18:10:09.316Z,51.10
2022-11-24T18:12:37.994Z,49.70
2022-11-24T18:15:08.713Z,38.90
2022-11-24T18:17:39.173Z,58.50
2022-11-24T18:20:10.157Z,84.70
2022-11-24T18:25:29.456Z,61.60
2022-11-24T18:27:58.344Z,62.40
2022-11-24T18:30:27.115Z,74.80
2022-11-24T18:32:57.867Z,55.50
2022-11-24T18:35:26.363Z,77.50
2022-11-24T18:37:55.044Z,76.80
2022-11-24T18:40:29.188Z,71.30
2022-11-24T18:42:58.585Z,49.80
2022-11-24T18:45:27.359Z,55.20
2022-11-24T18:47:56.107Z,61.00
2022-11-24T18:50:24.959Z,44.40
2022-11-24T18:52:54.326Z,55.30
2022-11-24T18:55:25.772Z,66.40
2022-11-24T18:57:54.770Z,78.60
2022-11-24T19:00:24.284Z,68.80
2022-11-24T19:02:53.755Z,68.50
2022-11-24T19:05:23.509Z,65.40
2022-11-24T19:07:54.691Z,58.40
2022-11-24T19:10:23.676Z,63.80
2022-11-24T19:12:52.331Z,62.40
2022-11-24T19:15:21.035Z,46.20
2022-11-24T19:17:50.554Z,42.10
2022-11-24T19:20:19.281Z,48.80
2022-11-24T19:22:47.970Z,45.70
2022-11-24T19:25:18.429Z,43.50
2022-11-24T19:27:47.143Z,66.10
2022-11-24T19:30:17.029Z,71.40
2022-11-24T19:32:46.090Z,71.50
2022-11-24T19:35:15.089Z,71.80
2022-11-24T19:37:44.045Z,71.30
2022-11-24T19:40:14.782Z,71.60
2022-11-24T19:42:43.599Z,72.40
2022-11-24T19:45:13.205Z,68.30
2022-11-24T19:47:41.736Z,71.60
2022-11-24T19:50:12.669Z,65.70
2022-11-24T19:52:41.221Z,60.00
2022-11-24T19:55:10.468Z,40.10
2022-11-24T19:57:39.111Z,50.20
2022-11-24T20:00:15.211Z,74.30
2022-11-24T20:02:44.262Z,67.30
2022-11-24T20:05:13.357Z,71.20
2022-11-24T20:07:41.711Z,59.80
2022-11-24T20:10:11.257Z,70.30
2022-11-24T20:12:39.808Z,54.80
2022-11-24T20:15:13.316Z,71.20
2022-11-24T20:17:42.514Z,48.90
2022-11-24T20:20:16.436Z,55.60
2022-11-24T20:22:45.975Z,57.40
2022-11-24T20:25:15.531Z,56.00
2022-11-24T20:27:46.386Z,46.90
2022-11-24T20:30:15.384Z,44.10
2022-11-24T20:32:44.010Z,59.90
2022-11-24T20:35:18.040Z,61.30
2022-11-24T20:37:47.334Z,55.80
2022-11-24T20:40:16.201Z,35.40
2022-11-24T20:42:47.637Z,41.60
2022-11-24T20:45:16.353Z,48.30
2022-11-24T20:47:45.035Z,47.10
2022-11-24T20:50:13.957Z,46.50
2022-11-24T20:52:42.877Z,45.70
2022-11-24T20:55:15.186Z,50.70
2022-11-24T20:57:47.673Z,42.80
2022-11-24T21:00:17.732Z,56.60
2022-11-24T21:02:46.485Z,52.70
2022-11-24T21:05:15.226Z,47.40
2022-11-24T21:07:43.698Z,63.40
2022-11-24T21:10:12.444Z,60.10
2022-11-24T21:12:42.385Z,61.80
2022-11-24T21:15:11.435Z,63.50
2022-11-24T21:17:40.219Z,74.70
2022-11-24T21:20:12.962Z,42.30
2022-11-24T21:22:41.811Z,40.00
2022-11-24T21:25:10.913Z,48.70
2022-11-24T21:27:40.559Z,39.80
2022-11-24T21:30:11.468Z,37.40
2022-11-24T21:32:40.298Z,38.60
2022-11-24T21:35:09.771Z,25.60
2022-11-24T21:37:38.615Z,53.50
2022-11-24T21:40:09.704Z,67.30
2022-11-24T21:42:38.673Z,72.90
2022-11-24T21:45:11.330Z,76.70
2022-11-24T21:47:41.977Z,63.80
2022-11-24T21:50:12.092Z,58.60
2022-11-24T21:52:40.995Z,58.20
2022-11-24T21:55:10.145Z,63.20
2022-11-24T21:57:39.085Z,38.00
2022-11-24T22:00:09.480Z,35.10
2022-11-24T22:02:38.348Z,30.90
2022-11-24T22:05:09.001Z,65.10
2022-11-24T22:07:40.789Z,65.50
2022-11-24T22:10:11.196Z,54.10
2022-11-24T22:12:39.720Z,74.00
2022-11-24T22:15:09.819Z,58.90
2022-11-24T22:17:38.622Z,73.90
2022-11-24T22:20:10.782Z,70.80
2022-11-24T22:22:39.438Z,58.40
2022-11-24T22:25:11.962Z,66.60
2022-11-24T22:27:40.825Z,54.20
2022-11-24T22:30:11.416Z,65.50
2022-11-24T22:32:40.020Z,49.10
2022-11-24T22:35:10.039Z,41.90
2022-11-24T22:37:38.830Z,51.50
2022-11-24T22:40:09.647Z,71.10
2022-11-24T22:42:38.248Z,73.90
2022-11-24T22:45:11.392Z,69.10
2022-11-24T22:47:41.239Z,68.00
2022-11-24T22:50:17.644Z,77.20
2022-11-24T22:52:46.220Z,50.20
2022-11-24T22:55:16.243Z,53.10
2022-11-24T22:57:52.298Z,66.50
2022-11-24T23:00:25.561Z,40.60
2022-11-24T23:02:55.426Z,47.40
2022-11-24T23:05:25.996Z,59.90
2022-11-24T23:07:55.028Z,73.70
2022-11-24T23:10:25.925Z,71.20
2022-11-24T23:12:55.470Z,58.50
2022-11-24T23:15:24.170Z,61.70
2022-11-24T23:17:52.458Z,48.40
2022-11-24T23:20:23.151Z,53.80
2022-11-24T23:22:55.654Z,62.70
2022-11-24T23:25:24.798Z,62.50
2022-11-24T23:27:53.078Z,55.40
2022-11-24T23:30:24.300Z,69.70
2022-11-24T23:32:53.860Z,61.80
2022-11-24T23:35:23.441Z,62.40
2022-11-24T23:38:07.123Z,69.90
2022-11-24T23:40:36.762Z,56.20
2022-11-24T23:43:09.200Z,55.50
2022-11-24T23:45:38.066Z,54.00
2022-11-24T23:48:09.015Z,57.80
2022-11-24T23:50:37.368Z,56.50
2022-11-24T23:53:06.019Z,52.80
2022-11-24T23:55:34.325Z,39.30
2022-11-24T23:58:09.085Z,52.70
